Time;durP1;ratioP1;P1;durP2;ratioP2;P2;SDS_P1;SDS_P2;PMS_P1;PMS_P2;Temp;Humidity;BMP_temperature;BMP_pressure;BME280_temperature;BME280_humidity;BME280_pressure;Samples;Min_cycle;Max_cycle;Signal;HPM_P1;HPM_P2
2022/08/11 00:00:31;;;;;;;;;;;;;;;28.75;42.99;100785.59;5074855;28;1084;-44
2022/08/11 00:03:02;;;;;;;;;;;;;;;28.87;41.96;100789.75;5072040;28;1438;-41
2022/08/11 00:05:29;;;;;;;;;;;;;;;29.01;41.97;100791.88;5074607;28;2035;-39
2022/08/11 00:07:56;;;;;;;;;;;;;;;28.87;41.36;100788.88;5075253;28;1259;-43
2022/08/11 00:10:24;;;;;;;;;;;;;;;28.89;41.65;100782.38;5075167;28;1024;-44
2022/08/11 00:12:51;;;;;;;;;;;;;;;28.87;42.29;100786.22;5074803;28;1248;-44
2022/08/11 00:15:17;;;;;;;;;;;;;;;28.79;42.18;100786.13;5075219;28;1129;-42
2022/08/11 00:17:45;;;;;;;;;;;;;;;28.73;42.45;100793.75;5074697;28;1284;-42
2022/08/11 00:20:13;;;;;;;;;;;;;;;28.59;42.98;100791.56;5075215;28;1152;-41
2022/08/11 00:22:43;;;;;;;;;;;;;;;28.61;42.88;100792.25;5074464;28;1288;-44
2022/08/11 00:25:15;;;;;;;;;;;;;;;28.65;42.88;100790.16;5074879;28;2061;-41
2022/08/11 00:27:41;;;;;;;;;;;;;;;28.63;42.85;100786.75;5074860;28;1362;-43
2022/08/11 00:30:09;;;;;;;;;;;;;;;28.66;42.93;100792.69;5075722;28;1264;-43
2022/08/11 00:32:36;;;;;;;;;;;;;;;28.58;43.09;100784.50;5075230;28;1204;-43
2022/08/11 00:35:06;;;;;;;;;;;;;;;28.48;43.56;100790.94;5073534;28;1476;-44
2022/08/11 00:37:54;;;;;;;;;;;;;;;28.66;43.27;100794.53;5073246;28;2071;-43
2022/08/11 00:40:32;;;;;;;;;;;;;;;28.63;43.21;100797.47;5073598;28;1139;-42
2022/08/11 00:43:08;;;;;;;;;;;;;;;28.52;43.74;100797.66;5071468;28;1381;-43
2022/08/11 00:45:55;;;;;;;;;;;;;;;28.46;44.35;100799.09;5072422;28;1914;-42
2022/08/11 00:48:35;;;;;;;;;;;;;;;28.37;45.90;100801.84;5072433;28;1276;-45
2022/08/11 00:51:04;;;;;;;;;;;;;;;28.23;45.79;100789.78;5073187;28;632;-43
2022/08/11 00:53:45;;;;;;;;;;;;;;;28.53;45.64;100791.31;5073763;28;1162;-43
2022/08/11 00:56:30;;;;;;;;;;;;;;;28.52;45.79;100798.50;5073701;28;1028;-42
2022/08/11 00:59:06;;;;;;;;;;;;;;;28.45;45.92;100792.09;5073533;28;1256;-42
2022/08/11 01:01:55;;;;;;;;;;;;;;;28.41;45.28;100797.88;5074372;28;2042;-45
2022/08/11 01:05:00;;;;;;;;;;;;;;;28.23;45.62;100808.53;5074280;28;1922;-45
2022/08/11 01:07:45;;;;;;;;;;;;;;;28.20;45.39;100795.44;5032568;28;1304;-42
2022/08/11 01:11:03;;;;;;;;;;;;;;;28.29;45.29;100799.91;5032464;28;1729;-43
2022/08/11 01:13:48;;;;;;;;;;;;;;;28.27;44.43;100806.41;5009629;28;1324;-43
2022/08/11 01:16:33;;;;;;;;;;;;;;;28.23;44.03;100805.84;5070245;28;1096;-47
2022/08/11 01:19:17;;;;;;;;;;;;;;;28.21;44.14;100800.63;5074472;28;1522;-42
2022/08/11 01:22:02;;;;;;;;;;;;;;;28.17;44.44;100806.44;5074677;28;695;-40
2022/08/11 01:24:41;;;;;;;;;;;;;;;28.21;44.59;100799.78;5074501;28;1909;-42
2022/08/11 01:27:07;;;;;;;;;;;;;;;28.30;44.21;100806.94;5074394;28;1308;-34
2022/08/11 01:29:48;;;;;;;;;;;;;;;28.33;44.52;100795.09;5074598;28;1096;-36
2022/08/11 01:32:17;;;;;;;;;;;;;;;28.25;44.68;100794.97;5074102;28;1310;-35
2022/08/11 01:35:03;;;;;;;;;;;;;;;28.26;44.12;100799.34;5074237;28;1587;-34
2022/08/11 01:38:08;;;;;;;;;;;;;;;28.04;44.33;100796.06;5073809;28;1177;-34
2022/08/11 01:40:37;;;;;;;;;;;;;;;28.04;44.46;100801.41;5029250;28;1101;-34
2022/08/11 01:46:07;;;;;;;;;;;;;;;27.72;44.23;100800.06;5057364;28;1912;-35
2022/08/11 01:48:48;;;;;;;;;;;;;;;27.77;44.33;100800.47;5072105;28;1280;-35
2022/08/11 01:51:44;;;;;;;;;;;;;;;27.81;44.50;100804.56;5072372;28;912;-35
2022/08/11 01:54:17;;;;;;;;;;;;;;;27.60;44.94;100810.91;5063641;28;1667;-35
2022/08/11 01:57:01;;;;;;;;;;;;;;;27.69;44.85;100810.06;5073416;28;1017;-35
2022/08/11 01:59:33;;;;;;;;;;;;;;;27.62;44.90;100805.44;5073882;28;1146;-35
2022/08/11 02:02:18;;;;;;;;;;;;;;;27.62;44.60;100800.94;5073847;28;1365;-35
2022/08/11 02:05:01;;;;;;;;;;;;;;;27.74;44.63;100798.09;5073770;28;1910;-35
2022/08/11 02:08:00;;;;;;;;;;;;;;;27.81;44.41;100799.19;5073834;28;1284;-35
2022/08/11 02:13:21;;;;;;;;;;;;;;;27.77;44.52;100798.66;5073989;28;1298;-36
2022/08/11 02:16:07;;;;;;;;;;;;;;;27.69;44.61;100795.84;5073716;28;660;-35
2022/08/11 02:24:19;;;;;;;;;;;;;;;27.86;44.57;100808.47;5073265;28;1909;-35
2022/08/11 02:26:49;;;;;;;;;;;;;;;27.77;44.81;100803.16;5073555;28;1000;-35
2022/08/11 02:29:31;;;;;;;;;;;;;;;27.87;44.65;100809.34;5073575;28;1032;-35
2022/08/11 02:34:59;;;;;;;;;;;;;;;27.79;44.85;100803.84;5073000;28;1499;-35
2022/08/11 02:37:33;;;;;;;;;;;;;;;27.69;45.26;100807.38;5073262;28;1309;-35
2022/08/11 02:40:23;;;;;;;;;;;;;;;27.66;45.17;100798.81;5073616;28;1056;-35
2022/08/11 02:43:23;;;;;;;;;;;;;;;27.36;45.84;100802.47;5073229;28;1264;-35
2022/08/11 02:45:53;;;;;;;;;;;;;;;27.37;45.80;100801.47;5049995;28;1914;-35
2022/08/11 02:51:42;;;;;;;;;;;;;;;27.52;45.17;100804.59;5073165;28;1040;-36
2022/08/11 02:54:32;;;;;;;;;;;;;;;27.43;45.62;100808.97;5072474;28;1303;-35
2022/08/11 02:57:01;;;;;;;;;;;;;;;27.39;45.74;100804.03;5073175;28;1284;-35
2022/08/11 02:59:49;;;;;;;;;;;;;;;27.54;45.53;100808.81;5073239;28;1028;-35
2022/08/11 03:02:30;;;;;;;;;;;;;;;27.50;45.56;100810.09;5072589;28;1315;-35
2022/08/11 03:04:56;;;;;;;;;;;;;;;27.48;45.62;100806.69;5072506;28;1909;-35
2022/08/11 03:07:33;;;;;;;;;;;;;;;27.55;45.67;100804.31;5073130;28;1214;-34
2022/08/11 03:10:12;;;;;;;;;;;;;;;27.52;45.96;100808.13;5073374;28;1089;-35
2022/08/11 03:18:31;;;;;;;;;;;;;;;27.51;46.02;100805.59;5076757;28;1292;-35
2022/08/11 03:21:06;;;;;;;;;;;;;;;27.45;46.73;100809.66;5077116;28;1104;-35
2022/08/11 03:23:36;;;;;;;;;;;;;;;27.52;46.30;100799.25;5076780;28;1186;-35
2022/08/11 03:26:09;;;;;;;;;;;;;;;27.50;46.24;100798.56;5077066;28;1909;-35
2022/08/11 03:29:03;;;;;;;;;;;;;;;27.44;46.26;100791.09;5076950;28;1269;-35
2022/08/11 03:31:33;;;;;;;;;;;;;;;27.49;46.23;100795.03;5060982;28;1394;-35
2022/08/11 03:34:10;;;;;;;;;;;;;;;27.40;46.41;100795.84;5076643;28;1412;-35
2022/08/11 03:36:55;;;;;;;;;;;;;;;27.44;46.27;100799.13;5076683;28;1274;-35
2022/08/11 03:40:00;;;;;;;;;;;;;;;27.50;46.27;100791.38;5077000;28;2333;-35
2022/08/11 03:42:39;;;;;;;;;;;;;;;27.34;46.70;100793.75;5076371;28;1287;-36
2022/08/11 03:45:21;;;;;;;;;;;;;;;27.37;46.85;100798.81;5076849;28;1910;-35
2022/08/11 03:48:06;;;;;;;;;;;;;;;27.27;46.85;100803.31;5076441;28;1303;-35
2022/08/11 03:50:41;;;;;;;;;;;;;;;27.33;46.46;100793.91;5076774;28;1037;-35
2022/08/11 03:53:46;;;;;;;;;;;;;;;27.29;46.75;100796.00;5076238;28;1290;-35
2022/08/11 03:56:25;;;;;;;;;;;;;;;27.28;46.35;100796.97;5033908;28;1072;-35
2022/08/11 03:59:05;;;;;;;;;;;;;;;27.23;46.90;100799.25;5033819;28;1213;-35
2022/08/11 04:01:37;;;;;;;;;;;;;;;27.07;46.87;100810.50;5061191;28;1100;-35
2022/08/11 04:04:22;;;;;;;;;;;;;;;27.20;46.82;100806.69;5076271;28;1216;-33
2022/08/11 04:07:07;;;;;;;;;;;;;;;27.00;46.55;100814.69;5075924;28;1906;-34
2022/08/11 04:09:46;;;;;;;;;;;;;;;26.95;46.71;100821.44;5076198;28;1093;-33
2022/08/11 04:12:32;;;;;;;;;;;;;;;26.95;46.60;100824.97;5075651;28;1213;-34
2022/08/11 04:18:23;;;;;;;;;;;;;;;27.17;46.35;100818.53;5074409;28;1229;-34
2022/08/11 04:20:53;;;;;;;;;;;;;;;27.19;46.41;100829.91;5075950;28;1013;-34
2022/08/11 04:23:29;;;;;;;;;;;;;;;27.13;46.74;100831.31;5074625;28;1213;-34
2022/08/11 04:26:25;;;;;;;;;;;;;;;27.15;46.68;100834.69;5075388;28;1994;-34
2022/08/11 04:28:55;;;;;;;;;;;;;;;27.05;46.99;100830.34;5075757;28;1296;-34
2022/08/11 04:31:25;;;;;;;;;;;;;;;27.23;46.45;100836.69;5075787;28;1068;-34
2022/08/11 04:34:31;;;;;;;;;;;;;;;27.14;46.92;100838.38;5075407;28;1416;-34
2022/08/11 04:40:16;;;;;;;;;;;;;;;27.07;46.87;100831.03;5075528;28;1053;-34
2022/08/11 04:43:20;;;;;;;;;;;;;;;27.01;47.16;100836.94;5068002;28;1892;-33
2022/08/11 04:45:49;;;;;;;;;;;;;;;27.00;47.07;100836.09;5074242;28;1906;-35
2022/08/11 05:02:34;;;;;;;;;;;;;;;27.11;47.67;100841.28;5075002;28;1278;-34
2022/08/11 05:07:57;;;;;;;;;;;;;;;27.23;47.72;100836.69;5074751;28;1396;-35
2022/08/11 05:10:36;;;;;;;;;;;;;;;27.28;47.99;100841.59;5074810;28;1095;-35
2022/08/11 05:35:34;;;;;;;;;;;;;;;27.04;48.40;100832.16;5073430;28;1239;-35
2022/08/11 05:58:35;;;;;;;;;;;;;;;27.23;48.71;100835.84;5074007;28;2028;-34
2022/08/11 06:01:08;;;;;;;;;;;;;;;27.18;48.30;100848.78;5073173;28;1452;-35
2022/08/11 06:04:12;;;;;;;;;;;;;;;27.30;47.98;100848.50;5073187;28;1221;-34
2022/08/11 06:06:25;;;;;;;;;;;;;;;27.25;48.23;100842.72;5073586;28;1906;-35
2022/08/11 06:08:54;;;;;;;;;;;;;;;27.38;47.91;100835.28;5073960;28;1180;-35
2022/08/11 06:11:23;;;;;;;;;;;;;;;27.34;47.74;100839.22;5073508;28;1065;-34
2022/08/11 06:14:10;;;;;;;;;;;;;;;27.43;47.68;100848.25;5073431;28;2411;-35
2022/08/11 06:16:37;;;;;;;;;;;;;;;27.50;47.32;100850.22;5073488;28;1024;-35
2022/08/11 06:19:04;;;;;;;;;;;;;;;27.46;47.39;100846.13;5073320;28;1307;-35
2022/08/11 06:21:33;;;;;;;;;;;;;;;27.46;47.65;100854.16;5073516;28;1040;-35
2022/08/11 06:24:01;;;;;;;;;;;;;;;27.47;47.44;100845.16;5073576;28;1296;-35
2022/08/11 06:26:28;;;;;;;;;;;;;;;27.53;47.53;100852.63;5073390;28;1978;-34
2022/08/11 06:28:56;;;;;;;;;;;;;;;27.56;47.32;100851.50;5073535;28;1234;-35
2022/08/11 06:31:24;;;;;;;;;;;;;;;27.64;47.39;100849.78;5073388;28;1020;-33
2022/08/11 06:34:10;;;;;;;;;;;;;;;27.63;47.50;100848.09;5073038;28;1440;-35
2022/08/11 06:37:11;;;;;;;;;;;;;;;27.70;47.73;100851.03;5073168;28;1386;-34
2022/08/11 06:39:43;;;;;;;;;;;;;;;27.68;47.88;100848.53;5073477;28;1265;-34
2022/08/11 06:42:13;;;;;;;;;;;;;;;27.74;47.88;100843.56;5073152;28;1361;-35
2022/08/11 06:44:41;;;;;;;;;;;;;;;27.82;48.16;100854.41;5073299;28;1113;-35
2022/08/11 06:47:09;;;;;;;;;;;;;;;27.84;48.19;100853.31;5072293;28;1909;-35
2022/08/11 06:52:28;;;;;;;;;;;;;;;27.91;48.02;100853.53;5072649;28;1292;-34
2022/08/11 06:55:11;;;;;;;;;;;;;;;28.02;47.79;100850.72;5073369;28;1264;-34
2022/08/11 07:00:47;;;;;;;;;;;;;;;28.05;46.97;100853.13;5063594;28;1029;-35
2022/08/11 07:03:18;;;;;;;;;;;;;;;28.08;46.34;100852.84;5072500;28;1214;-35
2022/08/11 07:05:48;;;;;;;;;;;;;;;28.16;45.88;100858.31;5072488;28;1905;-35
2022/08/11 07:17:07;;;;;;;;;;;;;;;28.49;42.85;100855.09;5072616;28;1287;-34
2022/08/11 07:30:53;;;;;;;;;;;;;;;28.65;41.23;100849.97;5072608;28;1533;-33
2022/08/11 07:33:27;;;;;;;;;;;;;;;28.62;41.37;100854.75;5072443;28;1215;-34
2022/08/11 07:36:14;;;;;;;;;;;;;;;28.65;41.21;100851.81;5073029;28;2211;-35
2022/08/11 07:38:43;;;;;;;;;;;;;;;28.62;41.75;100854.75;5072175;28;1295;-35
2022/08/11 07:41:15;;;;;;;;;;;;;;;28.65;41.68;100859.84;5072578;28;1009;-34
2022/08/11 07:43:43;;;;;;;;;;;;;;;28.65;42.04;100859.84;5072152;28;1350;-34
2022/08/11 07:54:29;;;;;;;;;;;;;;;28.94;40.57;100863.19;5072647;28;1146;-34
2022/08/11 07:56:59;;;;;;;;;;;;;;;29.05;40.82;100867.50;5072385;28;1268;-34
2022/08/11 08:19:01;;;;;;;;;;;;;;;29.16;43.18;100868.13;5071776;28;1387;-44
2022/08/11 08:21:28;;;;;;;;;;;;;;;29.16;43.69;100878.88;5075035;28;1028;-36
2022/08/11 08:23:57;;;;;;;;;;;;;;;29.15;43.87;100870.97;5075223;28;1408;-43
2022/08/11 08:32:05;;;;;;;;;;;;;;;29.23;44.62;100868.38;5070145;28;1404;-42
2022/08/11 08:34:34;;;;;;;;;;;;;;;29.24;45.34;100867.41;5075269;28;1613;-45
2022/08/11 08:37:01;;;;;;;;;;;;;;;29.27;44.66;100867.94;5062078;28;1715;-38
2022/08/11 08:39:43;;;;;;;;;;;;;;;29.38;44.54;100874.94;5071382;28;1271;-34
2022/08/11 08:42:12;;;;;;;;;;;;;;;29.36;44.67;100873.41;5072025;28;1331;-44
2022/08/11 08:44:40;;;;;;;;;;;;;;;29.45;44.70;100876.00;5075445;28;1080;-38
2022/08/11 08:47:16;;;;;;;;;;;;;;;29.44;44.51;100884.19;5075012;28;1972;-41
2022/08/11 08:50:04;;;;;;;;;;;;;;;29.50;44.37;100870.16;5075130;28;2015;-43
2022/08/11 08:52:34;;;;;;;;;;;;;;;29.53;43.79;100875.22;5074476;28;1342;-43
2022/08/11 08:55:07;;;;;;;;;;;;;;;29.52;42.90;100873.53;5069039;28;1117;-38
2022/08/11 08:57:34;;;;;;;;;;;;;;;29.68;41.18;100871.84;5074106;28;1256;-42
2022/08/11 09:00:06;;;;;;;;;;;;;;;29.71;42.02;100868.00;5073971;28;1552;-43
2022/08/11 09:02:35;;;;;;;;;;;;;;;29.62;42.78;100861.72;5074155;28;1284;-42
2022/08/11 09:05:03;;;;;;;;;;;;;;;29.60;43.47;100865.56;5072298;28;1246;-42
2022/08/11 09:07:30;;;;;;;;;;;;;;;29.59;42.97;100862.03;5072323;28;1909;-43
2022/08/11 09:10:06;;;;;;;;;;;;;;;29.65;43.86;100866.78;5071697;28;1471;-42
2022/08/11 09:12:33;;;;;;;;;;;;;;;29.73;43.49;100861.47;5072297;28;1275;-43
2022/08/11 09:15:04;;;;;;;;;;;;;;;29.69;44.05;100868.16;5072281;28;1080;-43
2022/08/11 09:17:46;;;;;;;;;;;;;;;29.70;43.84;100869.84;5072352;28;1248;-43
2022/08/11 09:20:19;;;;;;;;;;;;;;;29.78;43.79;100875.28;5074497;28;1182;-43
2022/08/11 09:28:41;;;;;;;;;;;;;;;29.86;45.30;100863.78;5074204;28;1406;-45
2022/08/11 09:31:10;;;;;;;;;;;;;;;29.86;46.05;100861.09;5052638;28;1067;-43
2022/08/11 09:33:38;;;;;;;;;;;;;;;29.95;47.77;100870.03;5053800;28;1499;-43
2022/08/11 09:41:39;;;;;;;;;;;;;;;29.93;48.48;100864.00;5073614;28;1063;-44
2022/08/11 09:47:28;;;;;;;;;;;;;;;29.95;49.13;100870.91;5073362;28;1906;-45
2022/08/11 09:49:58;;;;;;;;;;;;;;;30.10;48.82;100873.84;5074567;28;1145;-42
2022/08/11 09:52:27;;;;;;;;;;;;;;;30.23;49.00;100871.59;5073657;28;1402;-44
2022/08/11 09:54:54;;;;;;;;;;;;;;;30.07;48.90;100872.31;5073362;28;1479;-44
2022/08/11 10:00:11;;;;;;;;;;;;;;;30.04;48.85;100867.25;5071365;28;1189;-44
2022/08/11 10:02:49;;;;;;;;;;;;;;;30.04;48.74;100866.41;5072259;28;1316;-44
2022/08/11 10:08:06;;;;;;;;;;;;;;;30.11;50.66;100860.28;5051933;28;1914;-44
2022/08/11 10:10:36;;;;;;;;;;;;;;;30.13;50.54;100860.09;5051824;28;1063;-44
2022/08/11 10:13:13;;;;;;;;;;;;;;;30.18;49.77;100857.78;5071075;28;1220;-45
2022/08/11 10:16:02;;;;;;;;;;;;;;;30.50;51.92;100862.50;5071913;28;2121;-44
2022/08/11 10:18:48;;;;;;;;;;;;;;;30.26;50.64;100863.19;5071968;28;1386;-45
2022/08/11 10:21:27;;;;;;;;;;;;;;;30.26;50.61;100855.16;5072041;28;1016;-43
2022/08/11 10:26:54;;;;;;;;;;;;;;;30.34;51.67;100857.88;5072968;28;1979;-39
2022/08/11 10:35:11;;;;;;;;;;;;;;;30.59;50.20;100850.78;5071456;28;1223;-48
2022/08/11 10:37:38;;;;;;;;;;;;;;;30.48;51.31;100848.41;5069730;28;1390;-48
2022/08/11 10:40:25;;;;;;;;;;;;;;;30.72;50.41;100852.03;5071362;28;2245;-49
2022/08/11 10:43:01;;;;;;;;;;;;;;;30.26;51.40;100855.16;5070582;28;1246;-48
2022/08/11 10:48:17;;;;;;;;;;;;;;;30.44;50.33;100855.09;5064073;28;1910;-47
2022/08/11 10:59:03;;;;;;;;;;;;;;;30.36;50.93;100853.19;5068121;28;1543;-47
2022/08/11 11:01:31;;;;;;;;;;;;;;;30.44;50.83;100858.63;5070479;28;1043;-45
2022/08/11 11:04:03;;;;;;;;;;;;;;;30.93;50.80;100850.75;5070533;28;1362;-46
2022/08/11 11:07:00;;;;;;;;;;;;;;;30.96;51.87;100850.44;5060235;28;1984;-47
2022/08/11 11:09:31;;;;;;;;;;;;;;;31.03;49.86;100848.78;5062287;28;1782;-46
2022/08/11 11:17:55;;;;;;;;;;;;;;;30.95;51.39;100849.59;5070984;28;1409;-49
2022/08/11 11:20:25;;;;;;;;;;;;;;;31.04;49.99;100837.03;5070974;28;1138;-47
2022/08/11 11:23:05;;;;;;;;;;;;;;;30.74;50.20;100850.00;5068280;28;1392;-47
2022/08/11 11:26:13;;;;;;;;;;;;;;;30.98;49.71;100845.72;5070834;28;1100;-40
2022/08/11 11:28:56;;;;;;;;;;;;;;;30.81;49.87;100850.22;5056775;28;1978;-43
2022/08/11 11:31:22;;;;;;;;;;;;;;;30.72;50.63;100848.50;5070273;28;1029;-44
2022/08/11 11:34:08;;;;;;;;;;;;;;;30.70;50.55;100845.16;5072323;28;1665;-40
2022/08/11 11:36:55;;;;;;;;;;;;;;;30.64;50.17;100854.66;5074077;28;1045;-42
2022/08/11 11:39:24;;;;;;;;;;;;;;;30.60;50.21;100855.19;5074224;28;1327;-41
2022/08/11 11:41:52;;;;;;;;;;;;;;;30.55;50.47;100854.84;5073929;28;1304;-42
2022/08/11 11:44:21;;;;;;;;;;;;;;;30.52;50.35;100853.28;5073835;28;1135;-38
2022/08/11 11:46:49;;;;;;;;;;;;;;;30.50;50.63;100857.13;5074136;28;1914;-38
2022/08/11 11:49:17;;;;;;;;;;;;;;;30.55;50.38;100858.34;5074272;28;922;-39
2022/08/11 11:51:46;;;;;;;;;;;;;;;30.55;50.55;100854.84;5072618;28;1127;-39
2022/08/11 11:54:16;;;;;;;;;;;;;;;30.52;50.36;100858.66;5072365;28;1083;-40
2022/08/11 11:56:44;;;;;;;;;;;;;;;30.66;50.76;100857.22;5073593;28;1017;-36
2022/08/11 12:01:56;;;;;;;;;;;;;;;30.26;50.06;100857.84;5075084;28;1425;-35
2022/08/11 12:04:24;;;;;;;;;;;;;;;29.88;50.62;100847.53;5073895;28;1098;-31
2022/08/11 12:08:08;;;;;;;;;;;;;;;29.61;50.47;100843.06;5074714;28;1989;-31
2022/08/11 12:09:39;;;;;;;;;;;;;;;29.27;50.01;100856.38;5075180;28;1157;-35
2022/08/11 12:14:52;;;;;;;;;;;;;;;28.76;50.15;100851.59;5074917;28;1208;-32
2022/08/11 12:17:19;;;;;;;;;;;;;;;28.61;50.03;100848.53;5074217;28;1287;-34
2022/08/11 12:19:47;;;;;;;;;;;;;;;28.54;49.92;100847.47;5075050;28;1076;-33
2022/08/11 12:27:45;;;;;;;;;;;;;;;32.05;nan;100830.34;5070479;28;1906;-48
2022/08/11 12:30:12;;;;;;;;;;;;;;;32.20;nan;100825.91;5074968;28;1547;-48
2022/08/11 12:32:41;;;;;;;;;;;;;;;32.20;nan;100824.06;5072767;28;1244;-50
2022/08/11 12:35:08;;;;;;;;;;;;;;;32.44;nan;100831.22;5064387;28;1622;-49
2022/08/11 12:38:01;;;;;;;;;;;;;;;32.26;nan;100827.91;5073704;28;1362;-55
2022/08/11 12:46:34;;;;;;;;;;;;;;;32.68;nan;100817.66;5072810;28;876;-54
2022/08/11 12:52:00;;;;;;;;;;;;;;;32.25;nan;100828.94;5071206;28;1303;-53
2022/08/11 12:54:58;;;;;;;;;;;;;;;32.56;nan;100820.94;5073424;28;1038;-55
2022/08/11 13:05:54;;;;;;;;;;;;;;;32.47;nan;100826.31;5071931;28;1093;-50
2022/08/11 13:08:23;;;;;;;;;;;;;;;32.35;nan;100822.31;5071767;28;1914;-49
2022/08/11 13:13:44;;;;;;;;;;;;;;;32.15;nan;100821.06;5069307;28;1367;-49
2022/08/11 13:16:22;;;;;;;;;;;;;;;32.65;nan;100823.41;5071225;28;889;-48
2022/08/11 13:18:50;;;;;;;;;;;;;;;32.48;nan;100821.78;5071816;28;1271;-47
2022/08/11 13:21:20;;;;;;;;;;;;;;;32.45;nan;100824.81;5072917;28;1127;-47
2022/08/11 13:23:48;;;;;;;;;;;;;;;32.20;nan;100812.44;5073362;28;1260;-54
2022/08/11 13:26:28;;;;;;;;;;;;;;;32.03;nan;100811.66;5072715;28;900;-54
2022/08/11 13:29:09;;;;;;;;;;;;;;;31.90;nan;100814.84;5067604;28;1910;-51
2022/08/11 13:31:36;;;;;;;;;;;;;;;32.35;nan;100810.69;5072312;28;893;-50
2022/08/11 13:34:07;;;;;;;;;;;;;;;32.52;nan;100811.47;5072366;28;1613;-50
2022/08/11 13:36:34;;;;;;;;;;;;;;;32.54;nan;100806.75;5072258;28;876;-51
2022/08/11 13:39:02;;;;;;;;;;;;;;;32.26;nan;100807.19;5071884;28;1280;-52
2022/08/11 13:41:39;;;;;;;;;;;;;;;32.19;nan;100805.38;5070509;28;1020;-48
2022/08/11 13:44:09;;;;;;;;;;;;;;;32.12;nan;100802.53;5072570;28;1310;-53
2022/08/11 13:46:36;;;;;;;;;;;;;;;32.39;nan;100796.72;5072076;28;951;-47
2022/08/11 13:49:04;;;;;;;;;;;;;;;32.31;nan;100798.59;5064354;28;1902;-47
2022/08/11 13:51:35;;;;;;;;;;;;;;;32.19;nan;100790.03;5071985;28;884;-47
2022/08/11 13:54:04;;;;;;;;;;;;;;;32.38;nan;100794.16;5066626;28;1327;-48
2022/08/11 13:56:32;;;;;;;;;;;;;;;32.59;nan;100794.44;5071177;28;913;-49
2022/08/11 13:59:00;;;;;;;;;;;;;;;32.36;nan;100786.28;5070089;28;1326;-49
2022/08/11 14:01:31;;;;;;;;;;;;;;;32.51;nan;100789.06;5070949;28;1341;-47
2022/08/11 14:04:27;;;;;;;;;;;;;;;32.75;nan;100785.44;5072119;28;1518;-48
2022/08/11 14:06:59;;;;;;;;;;;;;;;32.22;nan;100781.59;5066044;28;1391;-50
2022/08/11 14:09:29;;;;;;;;;;;;;;;32.70;nan;100791.38;5072059;28;1997;-52
2022/08/11 14:14:51;;;;;;;;;;;;;;;32.51;nan;100789.06;5064774;28;1119;-48
2022/08/11 14:17:18;;;;;;;;;;;;;;;32.63;nan;100798.47;5070971;28;1217;-47
2022/08/11 14:20:07;;;;;;;;;;;;;;;32.98;nan;100797.09;5071134;28;2125;-48
2022/08/11 14:22:55;;;;;;;;;;;;;;;32.75;nan;100801.59;5070574;28;1990;-49
2022/08/11 14:25:22;;;;;;;;;;;;;;;32.95;nan;100798.28;5071959;28;1041;-50
2022/08/11 14:27:50;;;;;;;;;;;;;;;32.64;nan;100799.31;5070290;28;1910;-49
2022/08/11 14:30:55;;;;;;;;;;;;;;;33.39;nan;100795.78;5071199;28;2342;-48
2022/08/11 14:33:26;;;;;;;;;;;;;;;33.31;nan;100793.16;5071405;28;1287;-49
2022/08/11 14:36:06;;;;;;;;;;;;;;;33.38;nan;100793.25;5051267;28;861;-46
2022/08/11 14:38:34;;;;;;;;;;;;;;;33.08;nan;100791.47;5045841;28;1599;-44
2022/08/11 14:49:27;;;;;;;;;;;;;;;32.84;nan;100777.09;5052353;28;1910;-53
2022/08/11 14:51:56;;;;;;;;;;;;;;;33.23;nan;100778.88;5052137;28;1300;-55
2022/08/11 14:57:14;;;;;;;;;;;;;;;33.69;nan;100760.75;5051509;28;1589;-49
2022/08/11 14:59:42;;;;;;;;;;;;;;;33.49;nan;100765.84;5051753;28;1158;-55
2022/08/11 15:04:57;;;;;;;;;;;;;;;33.41;nan;100763.19;5052741;28;1075;-48
2022/08/11 15:07:28;;;;;;;;;;;;;;;33.29;nan;100756.53;5050802;28;1906;-52
2022/08/11 15:09:57;;;;;;;;;;;;;;;33.40;nan;100759.69;5051570;28;1038;-54
2022/08/11 15:12:43;;;;;;;;;;;;;;;33.34;nan;100754.16;5044159;28;1673;-51
2022/08/11 15:18:09;;;;;;;;;;;;;;;32.83;nan;100756.53;5051871;28;1386;-50
2022/08/11 15:26:11;;;;;;;;;;;;;;;33.47;nan;100752.50;5052129;28;885;-47
2022/08/11 15:45:51;;;;;;;;;;;;;;;32.69;nan;100751.06;5072196;28;941;-49
2022/08/11 15:48:32;;;;;;;;;;;;;;;32.74;nan;100746.81;5065499;28;1977;-48
2022/08/11 15:51:08;;;;;;;;;;;;;;;32.63;nan;100749.94;5072420;28;947;-49
2022/08/11 15:53:57;;;;;;;;;;;;;;;32.46;nan;100748.31;5070183;28;1555;-49
2022/08/11 15:56:25;;;;;;;;;;;;;;;32.64;nan;100740.84;5070881;28;1013;-49
2022/08/11 16:04:46;;;;;;;;;;;;;;;32.28;nan;100742.34;5072754;28;1107;-53
2022/08/11 16:07:15;;;;;;;;;;;;;;;32.29;nan;100736.78;5066098;28;1276;-51
2022/08/11 16:09:45;;;;;;;;;;;;;;;31.93;nan;100741.78;5066404;28;2041;-48
2022/08/11 16:12:15;;;;;;;;;;;;;;;32.06;nan;100735.03;5066527;28;1296;-51
2022/08/11 16:17:34;;;;;;;;;;;;;;;32.32;nan;100735.56;5071713;28;1271;-49
2022/08/11 16:20:02;;;;;;;;;;;;;;;32.29;nan;100738.63;5075231;28;944;-47
2022/08/11 16:22:37;;;;;;;;;;;;;;;31.97;nan;100730.66;5075529;28;1256;-47
2022/08/11 16:25:08;;;;;;;;;;;;;;;31.76;nan;100732.06;5074197;28;1205;-47
2022/08/11 16:28:06;;;;;;;;;;;;;;;32.26;nan;100731.72;5075188;28;1879;-50
2022/08/11 16:30:34;;;;;;;;;;;;;;;31.89;nan;100732.34;5075437;28;920;-47
2022/08/11 16:33:04;;;;;;;;;;;;;;;31.72;nan;100732.56;5075126;28;1330;-53
2022/08/11 16:38:38;;;;;;;;;;;;;;;31.92;nan;100721.22;5072175;28;1272;-37
2022/08/11 16:41:09;;;;;;;;;;;;;;;31.88;nan;100724.47;5067312;28;866;-46
2022/08/11 16:49:12;;;;;;;;;;;;;;;31.95;nan;100717.34;5072625;28;1903;-40
2022/08/11 16:51:39;;;;;;;;;;;;;;;31.56;nan;100719.97;5074491;28;741;-42
2022/08/11 16:54:06;;;;;;;;;;;;;;;31.76;nan;100723.16;5074754;28;1212;-41
2022/08/11 16:56:45;;;;;;;;;;;;;;;31.92;nan;100712.31;5074542;28;744;-42
2022/08/11 16:59:16;;;;;;;;;;;;;;;31.70;nan;100713.06;5074676;28;1186;-39
2022/08/11 17:01:46;;;;;;;;;;;;;;;31.66;nan;100709.88;5074352;28;1706;-40
2022/08/11 17:13:09;;;;;;;;;;;;;;;31.48;nan;100714.59;5067646;28;1370;-39
2022/08/11 17:18:39;;;;;;;;;;;;;;;31.46;nan;100716.63;5074218;28;1279;-39
2022/08/11 17:21:07;;;;;;;;;;;;;;;31.69;nan;100712.22;5073086;28;1377;-40
2022/08/11 17:23:48;;;;;;;;;;;;;;;31.61;nan;100711.41;5071311;28;1331;-38
2022/08/11 17:26:18;;;;;;;;;;;;;;;31.42;nan;100718.81;5068562;28;1270;-39
2022/08/11 17:28:50;;;;;;;;;;;;;;;31.56;nan;100716.44;5068914;28;1918;-38
2022/08/11 17:37:02;;;;;;;;;;;;;;;31.44;nan;100715.94;5067365;28;1354;-40
2022/08/11 17:39:29;;;;;;;;;;;;;;;31.39;nan;100712.94;5072929;28;1122;-39
2022/08/11 17:50:18;;;;;;;;;;;;;;;31.18;nan;100723.38;5072748;28;1939;-38
2022/08/11 18:01:06;;;;;;;;;;;;;;;31.29;nan;100718.47;5071671;28;848;-38
2022/08/11 18:03:38;;;;;;;;;;;;;;;31.34;nan;100720.69;5072191;28;1318;-37
2022/08/11 18:06:07;;;;;;;;;;;;;;;31.22;nan;100724.72;5071690;28;872;-37
